Portada
METAR-TAF:

METAR-TAF

Aeroports :

Aoba Island, Vanuatu

latitud: 15-18-24S, longitud: 167-58-02E, altitud: 51 m

Observació

L'informe es va fer fa 3 hores i 0 minuts, a les 06:00 UTC
Vent 10 kt del Sud-Est
Temperatura 28°C
Humitat 79%
Pressió 1013 hPa
Visibilitat 10 km o més
Núvols disperses a una alçada de 1800 ft
Cel ennuvolat a una alçada de 4000 ft

METAR: NVSG 190600Z 13010KT 9999 SCT018 BKN040 28/24 Q1013

Hora: 20:00 (09:00 UTC)

Pronòstic

L'informe es va fer fa 4 hores i 30 minuts, a les 04:30 UTC
Pronòstic vàlid del 19 a les 06 UTC al 20 a les 06 UTC
Vent 12 kt del Sud-Est
Visibilitat 10 km o més
Cel ennuvolat a una alçada de 2000 ft
Cel cobert a una alçada de 4000 ft
Probabilitat 40%
entre IN i TE UTC
Visibilitat: 9000 m
Escasses núvols a una alçada de 1000 ft
Cel ennuvolat a una alçada de 1800 ft
Cel cobert a una alçada de 3800 ft
xàfecs de pluja

TAF: NVSG 190430Z 1906/2006 13012KT 9999 BKN020 OVC040 PROB40 INTER 1906/1912 9000 SHRA FEW010 BKN018 OVC038

Observacions i pronòstics meteorològics de més de 4000 aeroports (METAR i TAF).

Les estacions disponibles són els punts grocs i vermells al mapa.

Posi el ratolí al punt desitjat per veure el nom de l'estació.

Feu clic per veure les observacions i els pronòstics meteorològics.

Per canviar el mapa: feu clic els botons verds amb una creu de color negre per apropar; al botó verd amb un guió per allunyar la imatge; o en les fletxes verdes per a mapes adjacents.


METAR-TAF: